createdAt,value
2019-01-02T00:03:41.996Z,2.81
2019-01-02T00:08:43.890Z,2.82
2019-01-02T00:13:45.937Z,2.81
2019-01-02T00:18:47.821Z,2.74
2019-01-02T00:23:49.809Z,3.00
2019-01-02T00:28:52.058Z,3.05
2019-01-02T00:33:54.244Z,3.11
2019-01-02T00:38:56.662Z,3.11
2019-01-02T00:43:58.703Z,3.28
2019-01-02T00:49:00.722Z,3.34
2019-01-02T00:54:02.949Z,3.41
2019-01-02T00:59:04.871Z,3.26
2019-01-02T01:04:06.882Z,3.33
2019-01-02T01:09:08.953Z,3.21
2019-01-02T01:14:12.481Z,3.25
2019-01-02T01:19:14.371Z,3.14
2019-01-02T01:24:16.328Z,3.35
2019-01-02T01:29:18.252Z,3.28
2019-01-02T01:34:20.239Z,3.32
2019-01-02T01:39:22.145Z,3.38
2019-01-02T01:44:24.065Z,3.29
2019-01-02T01:49:26.562Z,3.44
2019-01-02T01:54:28.496Z,3.43
2019-01-02T01:59:30.680Z,3.45
2019-01-02T02:04:32.610Z,3.48
2019-01-02T02:09:34.805Z,3.38
2019-01-02T02:14:36.732Z,3.34
2019-01-02T02:19:38.614Z,3.40
2019-01-02T02:24:40.808Z,3.45
2019-01-02T02:29:43.017Z,3.32
2019-01-02T02:34:44.910Z,3.32
2019-01-02T02:39:46.799Z,3.43
2019-01-02T02:44:49.008Z,3.34
2019-01-02T02:49:51.307Z,3.28
2019-01-02T02:54:53.278Z,3.32
2019-01-02T02:59:55.211Z,3.33
2019-01-02T03:04:57.209Z,3.28
2019-01-02T03:09:59.499Z,3.41
2019-01-02T03:15:02.258Z,3.46
2019-01-02T03:20:05.116Z,3.36
2019-01-02T03:25:08.623Z,3.30
2019-01-02T03:30:13.490Z,3.35
2019-01-02T03:35:15.908Z,3.30
2019-01-02T03:40:17.816Z,3.34
2019-01-02T03:45:19.739Z,3.33
2019-01-02T03:50:21.735Z,3.33
2019-01-02T03:55:23.780Z,3.18
2019-01-02T04:00:26.100Z,3.28
2019-01-02T04:05:28.031Z,3.24
2019-01-02T04:10:29.969Z,3.26
2019-01-02T04:15:32.088Z,3.12
2019-01-02T04:20:33.978Z,3.16
2019-01-02T04:25:35.894Z,3.09
2019-01-02T04:30:37.843Z,2.98
2019-01-02T04:35:39.784Z,3.01
2019-01-02T04:40:41.730Z,2.97
2019-01-02T04:45:43.632Z,3.03
2019-01-02T04:50:45.545Z,3.11
2019-01-02T04:55:47.478Z,2.96
2019-01-02T05:00:49.566Z,2.95
2019-01-02T05:05:51.756Z,3.03
2019-01-02T05:10:53.893Z,2.89
2019-01-02T05:15:55.800Z,2.92
2019-01-02T05:20:57.707Z,2.93
2019-01-02T05:25:59.634Z,2.90
2019-01-02T05:31:01.663Z,2.98
2019-01-02T05:36:03.571Z,2.91
2019-01-02T05:41:05.486Z,2.99
2019-01-02T05:46:07.392Z,2.88
2019-01-02T05:51:09.291Z,2.89
2019-01-02T05:56:11.219Z,2.77
2019-01-02T06:01:14.129Z,2.89
2019-01-02T06:06:16.088Z,2.99
2019-01-02T06:11:18.299Z,2.85
2019-01-02T06:16:20.307Z,2.76
2019-01-02T06:21:22.218Z,2.78
2019-01-02T06:26:24.163Z,2.92
2019-01-02T06:31:26.195Z,2.95
2019-01-02T06:36:29.336Z,2.95
2019-01-02T06:41:31.257Z,3.09
2019-01-02T06:46:33.865Z,3.18
2019-01-02T06:51:35.760Z,3.22
2019-01-02T06:56:37.846Z,3.16
2019-01-02T07:01:39.867Z,3.09
2019-01-02T07:06:41.759Z,3.05
2019-01-02T07:11:43.919Z,2.95
2019-01-02T07:16:45.818Z,2.96
2019-01-02T07:21:47.746Z,2.90
2019-01-02T07:26:49.793Z,2.93
2019-01-02T07:31:51.966Z,2.91
2019-01-02T07:37:27.428Z,2.99
2019-01-02T07:43:10.443Z,3.03
2019-01-02T07:48:52.742Z,2.99
2019-01-02T07:54:52.372Z,2.98
2019-01-02T08:00:44.055Z,3.22
2019-01-02T08:06:50.675Z,3.33
2019-01-02T08:12:23.008Z,3.35
2019-01-02T08:17:59.460Z,3.25
2019-01-02T08:23:49.451Z,3.20
2019-01-02T08:29:42.156Z,3.23
2019-01-02T08:35:40.110Z,3.37
2019-01-02T08:41:15.595Z,3.32
2019-01-02T08:46:53.821Z,3.47
2019-01-02T08:52:37.639Z,3.45
2019-01-02T08:58:22.921Z,3.45
2019-01-02T09:03:40.777Z,3.56
2019-01-02T09:09:30.275Z,3.67
2019-01-02T09:14:56.388Z,3.73
2019-01-02T09:20:33.713Z,3.67
2019-01-02T09:26:06.456Z,3.59
2019-01-02T09:31:28.370Z,2.94
2019-01-02T09:37:10.815Z,2.54
2019-01-02T09:42:59.840Z,2.46
2019-01-02T09:48:30.633Z,3.21
2019-01-02T09:53:57.616Z,4.18
2019-01-02T09:59:36.584Z,4.03
2019-01-02T10:05:18.957Z,3.63
2019-01-02T10:10:51.502Z,3.75
2019-01-02T10:16:09.519Z,4.15
2019-01-02T10:21:31.078Z,3.96
2019-01-02T10:27:09.418Z,3.57
2019-01-02T10:32:38.906Z,3.44
2019-01-02T10:38:10.991Z,3.43
2019-01-02T10:43:50.297Z,3.66
2019-01-02T10:49:18.697Z,3.65
2019-01-02T10:54:47.776Z,3.67
2019-01-02T11:00:09.860Z,3.61
2019-01-02T11:06:06.236Z,4.18
2019-01-02T11:11:21.483Z,3.95
2019-01-02T11:16:52.403Z,3.85
2019-01-02T11:22:06.259Z,3.80
2019-01-02T11:28:04.290Z,3.90
2019-01-02T11:33:26.298Z,3.87
2019-01-02T11:38:48.652Z,3.84
2019-01-02T11:44:22.206Z,3.66
2019-01-02T11:49:24.117Z,3.99
2019-01-02T11:54:26.002Z,4.30
2019-01-02T11:59:27.930Z,4.51
2019-01-02T12:04:29.857Z,5.03
2019-01-02T12:09:31.745Z,5.03
2019-01-02T12:14:33.701Z,4.63
2019-01-02T12:19:35.862Z,4.36
2019-01-02T12:24:37.783Z,4.08
2019-01-02T12:29:39.749Z,4.19
2019-01-02T12:34:41.790Z,4.42
2019-01-02T12:39:43.679Z,4.44
2019-01-02T12:44:45.600Z,4.59
2019-01-02T12:49:47.519Z,4.59
2019-01-02T12:54:49.414Z,4.46
2019-01-02T12:59:51.428Z,4.67
2019-01-02T13:05:31.604Z,4.59
2019-01-02T13:10:41.060Z,4.70
2019-01-02T13:16:26.090Z,4.92
2019-01-02T13:21:49.928Z,4.76
2019-01-02T13:27:38.621Z,4.27
2019-01-02T13:32:57.420Z,4.26
2019-01-02T13:38:41.212Z,4.51
2019-01-02T13:44:09.735Z,4.07
2019-01-02T13:50:01.306Z,3.89
2019-01-02T13:55:07.685Z,3.79
2019-01-02T14:00:09.944Z,4.03
2019-01-02T14:05:15.205Z,4.08
2019-01-02T14:10:17.122Z,3.93
2019-01-02T14:15:19.098Z,4.18
2019-01-02T14:20:21.005Z,3.95
2019-01-02T14:25:22.957Z,3.78
2019-01-02T14:30:24.865Z,3.67
2019-01-02T14:35:26.972Z,3.60
2019-01-02T14:40:28.876Z,3.49
2019-01-02T14:45:31.115Z,3.20
2019-01-02T14:50:33.025Z,3.01
2019-01-02T14:55:35.265Z,2.69
2019-01-02T15:00:37.210Z,2.54
2019-01-02T15:05:39.118Z,2.32
2019-01-02T15:10:41.036Z,2.28
2019-01-02T15:15:43.479Z,2.10
2019-01-02T15:20:45.627Z,2.17
2019-01-02T15:25:47.600Z,2.37
2019-01-02T15:30:49.614Z,2.22
2019-01-02T15:35:51.525Z,2.23
2019-01-02T15:40:53.473Z,2.32
2019-01-02T15:45:55.396Z,2.31
2019-01-02T15:50:57.342Z,2.54
2019-01-02T15:55:59.359Z,2.20
2019-01-02T16:01:01.360Z,2.14
2019-01-02T16:06:04.424Z,2.07
2019-01-02T16:11:06.334Z,2.27
2019-01-02T16:16:10.134Z,2.04
2019-01-02T16:21:12.088Z,2.02
2019-01-02T16:26:14.012Z,1.96
2019-01-02T16:31:15.934Z,1.98
2019-01-02T16:36:17.877Z,2.17
2019-01-02T16:41:19.788Z,2.10
2019-01-02T16:46:21.730Z,1.94
2019-01-02T16:51:23.637Z,2.07
2019-01-02T16:56:25.587Z,2.02
2019-01-02T17:01:27.597Z,1.93
2019-01-02T17:06:29.500Z,1.93
2019-01-02T17:11:32.127Z,2.05
2019-01-02T17:16:34.111Z,2.05
2019-01-02T17:21:36.011Z,1.96
2019-01-02T17:26:37.958Z,1.92
2019-01-02T17:31:39.938Z,2.04
2019-01-02T17:36:42.199Z,1.97
2019-01-02T17:41:44.128Z,2.07
2019-01-02T17:46:46.185Z,2.11
2019-01-02T17:51:48.090Z,2.10
2019-01-02T17:56:50.059Z,2.01
2019-01-02T18:01:52.992Z,1.83
2019-01-02T18:06:54.890Z,1.85
2019-01-02T18:11:56.845Z,1.86
2019-01-02T18:16:58.780Z,1.91
2019-01-02T18:22:00.681Z,1.86
2019-01-02T18:27:02.917Z,1.74
2019-01-02T18:32:04.888Z,1.63
2019-01-02T18:37:06.795Z,1.66
2019-01-02T18:42:08.826Z,1.61
2019-01-02T18:47:10.743Z,1.62
2019-01-02T18:52:12.644Z,1.49
2019-01-02T18:57:15.078Z,1.44
2019-01-02T19:02:16.979Z,1.45
2019-01-02T19:07:18.881Z,1.54
2019-01-02T19:12:20.799Z,1.51
2019-01-02T19:17:22.730Z,1.39
2019-01-02T19:22:24.679Z,1.36
2019-01-02T19:27:26.619Z,1.21
2019-01-02T19:32:28.570Z,1.20
2019-01-02T19:37:30.636Z,1.15
2019-01-02T19:42:32.565Z,1.19
2019-01-02T19:47:34.505Z,1.14
2019-01-02T19:52:36.447Z,1.03
2019-01-02T19:57:38.343Z,1.02
2019-01-02T20:02:40.243Z,0.91
2019-01-02T20:07:42.177Z,0.78
2019-01-02T20:12:44.559Z,1.00
2019-01-02T20:24:16.654Z,1.03
2019-01-02T20:29:18.566Z,1.11
2019-01-02T20:34:20.510Z,1.18
2019-01-02T20:39:22.419Z,1.16
2019-01-02T20:44:24.334Z,1.24
2019-01-02T20:49:26.657Z,1.11
2019-01-02T20:54:28.575Z,1.11
2019-01-02T20:59:30.490Z,1.11
2019-01-02T21:04:32.409Z,0.94
2019-01-02T21:09:34.315Z,0.80
2019-01-02T21:14:36.519Z,0.83
2019-01-02T21:19:38.519Z,0.72
2019-01-02T21:24:40.761Z,0.49
2019-01-02T21:29:42.671Z,0.65
2019-01-02T21:34:44.589Z,0.51
2019-01-02T21:39:46.511Z,0.41
2019-01-02T21:44:49.447Z,0.60
2019-01-02T21:49:51.523Z,0.56
2019-01-02T21:54:53.539Z,0.46
2019-01-02T21:59:55.448Z,0.34
2019-01-02T22:04:57.378Z,0.22
2019-01-02T22:09:59.284Z,0.16
2019-01-02T22:15:01.208Z,0.11
2019-01-02T22:20:03.677Z,0.13
2019-01-02T22:25:06.359Z,-0.13
2019-01-02T22:30:08.616Z,-0.11
2019-01-02T22:35:10.616Z,-0.14
2019-01-02T22:40:12.529Z,-0.12
2019-01-02T22:45:14.620Z,-0.11
2019-01-02T22:50:16.574Z,-0.21
2019-01-02T22:55:18.483Z,-0.09
2019-01-02T23:00:38.893Z,-0.01
2019-01-02T23:06:00.310Z,0.02
2019-01-02T23:11:20.387Z,0.01
2019-01-02T23:16:58.932Z,0.07
2019-01-02T23:22:19.727Z,0.04
2019-01-02T23:27:46.936Z,-0.05
2019-01-02T23:33:11.533Z,-0.20
2019-01-02T23:38:31.901Z,-0.26
2019-01-02T23:43:54.751Z,-0.29
2019-01-02T23:49:15.326Z,-0.32
